createdAt,value
2018-02-22T00:04:52.373Z,65.80
2018-02-22T00:10:02.697Z,65.90
2018-02-22T00:12:33.867Z,65.50
2018-02-22T00:15:12.391Z,65.40
2018-02-22T00:17:45.264Z,65.30
2018-02-22T00:20:15.055Z,66.40
2018-02-22T00:22:49.306Z,66.00
2018-02-22T00:25:19.614Z,65.20
2018-02-22T00:30:32.888Z,65.00
2018-02-22T00:33:06.459Z,67.60
2018-02-22T00:35:41.182Z,67.40
2018-02-22T00:38:11.012Z,66.60
2018-02-22T00:40:47.333Z,67.00
2018-02-22T00:43:17.972Z,65.90
2018-02-22T00:45:54.546Z,66.80
2018-02-22T00:48:30.036Z,66.40
2018-02-22T00:50:59.596Z,65.90
2018-02-22T00:53:29.795Z,66.70
2018-02-22T00:58:56.653Z,66.30
2018-02-22T01:12:08.176Z,66.20
2018-02-22T01:14:40.955Z,65.50
2018-02-22T01:17:21.408Z,66.00
2018-02-22T01:19:56.512Z,66.40
2018-02-22T01:22:38.567Z,66.00
2018-02-22T01:27:53.894Z,65.30
2018-02-22T01:30:27.517Z,66.30
2018-02-22T01:49:53.245Z,66.10
2018-02-22T01:55:02.855Z,66.10
2018-02-22T01:57:37.724Z,64.80
2018-02-22T02:00:13.267Z,64.50
2018-02-22T04:30:14.563Z,65.40
2018-02-22T04:33:10.278Z,64.20
2018-02-22T04:45:01.560Z,62.70
2018-02-22T05:02:00.562Z,62.00
2018-02-22T05:07:36.932Z,61.10
2018-02-22T05:10:17.075Z,60.20
2018-02-22T05:15:48.372Z,59.80
2018-02-22T05:20:50.840Z,60.20
2018-02-22T05:23:19.525Z,60.00
2018-02-22T05:25:51.301Z,59.60
2018-02-22T05:28:30.605Z,59.80
2018-02-22T05:30:59.477Z,61.30
2018-02-22T05:33:27.928Z,60.50
2018-02-22T05:35:56.796Z,61.90
2018-02-22T05:38:26.362Z,61.20
2018-02-22T05:40:54.534Z,60.70
2018-02-22T05:43:22.743Z,61.00
2018-02-22T05:45:51.872Z,62.30
2018-02-22T05:48:21.005Z,62.80
2018-02-22T05:50:49.256Z,62.00
2018-02-22T05:53:20.957Z,61.20
2018-02-22T05:55:56.891Z,61.20
2018-02-22T06:01:10.325Z,61.80
2018-02-22T06:03:39.518Z,61.90
2018-02-22T06:06:08.580Z,61.60
2018-02-22T06:08:37.025Z,61.50
2018-02-22T06:11:06.348Z,62.60
2018-02-22T06:13:36.082Z,62.60
2018-02-22T06:16:05.886Z,62.50
2018-02-22T06:18:34.163Z,62.50
2018-02-22T06:21:03.922Z,63.20
2018-02-22T06:23:33.927Z,63.60
2018-02-22T06:26:03.977Z,64.20
2018-02-22T06:28:32.173Z,65.60
2018-02-22T06:31:00.918Z,65.20
2018-02-22T06:33:29.128Z,64.90
2018-02-22T06:36:03.734Z,65.00
2018-02-22T06:38:33.377Z,64.40
2018-02-22T06:41:01.657Z,64.40
2018-02-22T06:43:29.845Z,62.80
2018-02-22T06:46:01.074Z,62.00
2018-02-22T06:48:30.768Z,62.60
2018-02-22T06:51:00.017Z,61.80
2018-02-22T06:53:28.183Z,62.30
2018-02-22T06:55:56.435Z,60.80
2018-02-22T06:58:25.012Z,60.80
2018-02-22T07:00:53.262Z,59.20
2018-02-22T07:03:22.214Z,61.30
2018-02-22T07:05:50.994Z,61.30
2018-02-22T07:08:19.210Z,60.30
2018-02-22T07:10:48.156Z,59.70
2018-02-22T07:13:18.218Z,59.60
2018-02-22T07:15:52.860Z,58.90
2018-02-22T07:18:22.081Z,58.60
2018-02-22T07:20:56.682Z,58.60
2018-02-22T07:23:25.532Z,59.00
2018-02-22T07:25:54.929Z,57.90
2018-02-22T07:28:23.947Z,59.10
2018-02-22T07:30:52.122Z,58.40
2018-02-22T07:33:20.330Z,59.60
2018-02-22T07:35:49.529Z,60.00
2018-02-22T07:38:18.678Z,59.60
2018-02-22T07:40:47.706Z,58.10
2018-02-22T07:43:17.397Z,57.50
2018-02-22T07:45:47.253Z,57.50
2018-02-22T07:48:15.445Z,58.10
2018-02-22T07:50:44.323Z,58.20
2018-02-22T07:53:12.996Z,57.60
2018-02-22T07:55:42.333Z,56.50
2018-02-22T07:58:10.512Z,57.10
2018-02-22T08:00:38.677Z,56.80
2018-02-22T08:03:07.602Z,56.20
2018-02-22T08:05:36.729Z,55.80
2018-02-22T08:08:06.221Z,56.40
2018-02-22T08:10:35.167Z,56.20
2018-02-22T08:13:04.243Z,56.20
2018-02-22T08:15:32.881Z,54.60
2018-02-22T08:18:01.057Z,56.00
2018-02-22T08:20:30.001Z,55.40
2018-02-22T08:22:58.159Z,55.70
2018-02-22T08:25:27.361Z,55.50
2018-02-22T08:27:56.716Z,55.80
2018-02-22T08:30:25.682Z,55.40
2018-02-22T08:32:54.691Z,55.40
2018-02-22T08:35:22.925Z,55.00
2018-02-22T08:37:51.099Z,54.70
2018-02-22T08:40:19.284Z,54.20
2018-02-22T08:42:47.520Z,54.30
2018-02-22T08:45:15.882Z,54.40
2018-02-22T08:47:44.835Z,51.90
2018-02-22T08:50:13.338Z,51.80
2018-02-22T08:52:41.525Z,52.20
2018-02-22T08:55:09.746Z,49.70
2018-02-22T08:57:41.911Z,50.30
2018-02-22T09:00:10.832Z,49.50
2018-02-22T09:02:39.011Z,47.60
2018-02-22T09:05:07.759Z,48.60
2018-02-22T09:07:37.722Z,49.90
2018-02-22T09:10:06.347Z,47.70
2018-02-22T09:12:34.564Z,47.50
2018-02-22T09:15:03.728Z,46.00
2018-02-22T09:17:32.869Z,43.30
2018-02-22T09:20:01.089Z,41.70
2018-02-22T09:22:30.039Z,44.70
2018-02-22T09:24:58.294Z,44.50
2018-02-22T09:27:26.452Z,43.10
2018-02-22T09:29:55.204Z,43.10
2018-02-22T09:32:25.589Z,42.20
2018-02-22T09:34:56.566Z,42.20
2018-02-22T09:37:25.920Z,41.30
2018-02-22T09:39:55.565Z,41.30
2018-02-22T09:42:26.484Z,37.10
2018-02-22T09:44:54.777Z,36.50
2018-02-22T09:47:27.374Z,36.70
2018-02-22T09:49:55.556Z,35.30
2018-02-22T09:52:23.719Z,36.80
2018-02-22T09:54:51.942Z,35.50
2018-02-22T09:57:22.861Z,37.00
2018-02-22T09:59:52.364Z,34.90
2018-02-22T10:02:24.709Z,35.20
2018-02-22T10:04:53.914Z,35.20
2018-02-22T10:07:23.510Z,35.20
2018-02-22T10:09:52.766Z,36.90
2018-02-22T10:12:22.526Z,32.90
2018-02-22T10:14:52.672Z,33.00
2018-02-22T10:17:21.206Z,33.60
2018-02-22T10:19:49.389Z,33.20
2018-02-22T10:22:17.566Z,34.30
2018-02-22T10:24:45.791Z,33.10
2018-02-22T10:27:13.952Z,31.80
2018-02-22T10:29:42.131Z,29.90
2018-02-22T10:32:10.290Z,30.20
2018-02-22T10:34:38.478Z,28.50
2018-02-22T10:37:06.652Z,28.70
2018-02-22T10:39:34.804Z,29.00
2018-02-22T10:42:02.955Z,28.60
2018-02-22T10:44:31.906Z,28.60
2018-02-22T10:47:00.088Z,28.30
2018-02-22T10:49:28.314Z,29.30
2018-02-22T10:51:56.465Z,29.00
2018-02-22T10:54:24.642Z,29.30
2018-02-22T10:56:52.817Z,28.20
2018-02-22T10:59:20.969Z,28.10
2018-02-22T11:01:54.711Z,28.10
2018-02-22T11:04:23.642Z,27.70
2018-02-22T11:06:51.828Z,27.60
2018-02-22T11:09:19.983Z,27.30
2018-02-22T11:11:48.170Z,27.90
2018-02-22T11:14:16.349Z,26.80
2018-02-22T11:16:44.506Z,26.80
2018-02-22T11:19:12.674Z,28.20
2018-02-22T11:21:40.846Z,28.10
2018-02-22T11:24:09.020Z,28.50
2018-02-22T11:26:37.165Z,28.70
2018-02-22T11:29:06.106Z,28.50
2018-02-22T11:31:34.367Z,28.40
2018-02-22T11:34:02.537Z,28.60
2018-02-22T11:36:32.779Z,27.70
2018-02-22T11:39:00.958Z,27.80
2018-02-22T11:41:30.116Z,28.20
2018-02-22T11:43:58.886Z,28.80
2018-02-22T11:46:27.046Z,28.50
2018-02-22T11:48:55.217Z,27.20
2018-02-22T11:51:23.395Z,28.30
2018-02-22T11:53:51.549Z,28.80
2018-02-22T11:56:21.379Z,28.20
2018-02-22T11:58:49.580Z,27.70
2018-02-22T12:01:18.518Z,27.40
2018-02-22T12:03:48.130Z,28.50
2018-02-22T12:06:16.377Z,28.50
2018-02-22T12:08:44.538Z,29.60
2018-02-22T12:11:13.473Z,29.00
2018-02-22T12:13:41.685Z,28.90
2018-02-22T12:16:09.905Z,28.50
2018-02-22T12:18:38.525Z,29.20
2018-02-22T12:21:07.688Z,28.70
2018-02-22T12:23:35.856Z,29.60
2018-02-22T12:26:04.088Z,29.40
2018-02-22T12:28:32.254Z,27.70
2018-02-22T12:31:00.467Z,28.00
2018-02-22T12:33:28.617Z,29.10
2018-02-22T12:36:04.775Z,28.90
2018-02-22T12:38:33.241Z,27.10
2018-02-22T12:41:01.958Z,26.10
2018-02-22T12:43:30.180Z,27.60
2018-02-22T12:45:58.450Z,26.80
2018-02-22T12:48:26.622Z,26.60
2018-02-22T12:50:54.806Z,26.30
2018-02-22T12:53:22.977Z,25.70
2018-02-22T12:55:52.150Z,25.70
2018-02-22T12:58:21.277Z,26.60
2018-02-22T13:00:50.898Z,25.20
2018-02-22T13:03:20.809Z,25.30
2018-02-22T13:05:49.965Z,24.00
2018-02-22T13:08:18.135Z,25.10
2018-02-22T13:10:46.395Z,24.10
2018-02-22T13:13:15.324Z,24.90
2018-02-22T13:15:43.724Z,25.00
2018-02-22T13:18:11.934Z,25.10
2018-02-22T13:20:41.174Z,24.80
2018-02-22T13:23:09.404Z,24.90
2018-02-22T13:25:37.641Z,25.10
2018-02-22T13:28:05.805Z,25.20
2018-02-22T13:30:33.969Z,25.70
2018-02-22T13:33:13.993Z,25.60
2018-02-22T13:35:46.843Z,26.90
2018-02-22T13:38:28.490Z,26.90
2018-02-22T13:40:56.767Z,26.80
2018-02-22T13:43:25.862Z,26.50
2018-02-22T13:45:54.145Z,27.60
2018-02-22T13:48:22.311Z,25.50
2018-02-22T13:51:02.382Z,25.70
2018-02-22T13:53:30.540Z,25.40
2018-02-22T13:56:00.236Z,24.60
2018-02-22T13:58:28.407Z,26.30
2018-02-22T14:01:08.570Z,25.00
2018-02-22T14:03:37.625Z,24.40
2018-02-22T14:06:09.633Z,25.00
2018-02-22T14:08:44.663Z,24.50
2018-02-22T14:11:13.009Z,23.10
2018-02-22T14:13:41.956Z,21.90
2018-02-22T14:16:11.073Z,21.90
2018-02-22T14:18:40.038Z,21.00
2018-02-22T14:21:08.196Z,21.00
2018-02-22T14:23:36.377Z,19.80
2018-02-22T14:26:05.387Z,19.30
2018-02-22T14:28:34.969Z,19.30
2018-02-22T14:31:03.145Z,19.30
2018-02-22T14:33:31.304Z,20.10
2018-02-22T14:36:02.633Z,19.80
2018-02-22T14:38:30.793Z,19.90
2018-02-22T14:40:59.028Z,20.90
2018-02-22T14:43:27.189Z,20.70
2018-02-22T14:45:55.420Z,20.30
2018-02-22T14:48:24.630Z,20.50
2018-02-22T14:50:52.814Z,20.50
2018-02-22T14:53:21.056Z,21.40
2018-02-22T14:55:49.335Z,23.20
2018-02-22T14:58:17.559Z,22.10
2018-02-22T15:00:52.030Z,24.90
2018-02-22T15:03:20.212Z,24.90
2018-02-22T15:05:48.401Z,23.60
2018-02-22T15:08:19.409Z,23.90
2018-02-22T15:10:48.999Z,25.50
2018-02-22T15:13:17.246Z,25.30
2018-02-22T15:15:45.547Z,24.90
2018-02-22T15:18:13.840Z,24.90
2018-02-22T15:20:42.105Z,26.40
2018-02-22T15:23:10.265Z,27.10
2018-02-22T15:25:39.479Z,26.10
2018-02-22T15:28:07.636Z,27.40
2018-02-22T15:30:35.853Z,27.90
2018-02-22T15:33:04.347Z,27.50
2018-02-22T15:35:32.574Z,27.70
2018-02-22T15:38:00.801Z,27.50
2018-02-22T15:40:28.959Z,27.00
2018-02-22T15:42:57.151Z,28.40
2018-02-22T15:45:29.825Z,26.70
2018-02-22T15:47:58.168Z,28.10
2018-02-22T15:50:26.988Z,28.00
2018-02-22T15:52:55.159Z,29.20
2018-02-22T15:55:26.562Z,27.30
2018-02-22T15:57:54.744Z,27.00
2018-02-22T16:00:26.772Z,29.00
2018-02-22T16:02:55.714Z,28.40
2018-02-22T16:05:24.711Z,28.40
2018-02-22T16:07:53.816Z,28.00
2018-02-22T16:10:21.980Z,28.60
2018-02-22T16:12:50.138Z,28.00
2018-02-22T16:15:20.219Z,28.00
2018-02-22T16:17:48.378Z,28.60
2018-02-22T16:20:16.559Z,28.50
2018-02-22T16:22:44.716Z,29.10
2018-02-22T16:25:14.891Z,28.40
2018-02-22T16:27:43.041Z,29.00
2018-02-22T16:30:11.205Z,28.30
2018-02-22T16:32:39.387Z,28.00
2018-02-22T16:35:08.222Z,28.40
2018-02-22T16:37:37.306Z,29.40
2018-02-22T16:40:05.494Z,27.60
2018-02-22T16:42:33.666Z,27.80
2018-02-22T16:45:01.924Z,27.20
2018-02-22T16:47:30.125Z,28.10
2018-02-22T16:49:58.287Z,29.30
2018-02-22T16:52:26.449Z,27.40
2018-02-22T16:54:55.663Z,28.50
2018-02-22T16:57:23.819Z,28.40
2018-02-22T16:59:51.967Z,28.10
2018-02-22T17:02:21.158Z,28.20
2018-02-22T17:04:50.082Z,27.70
2018-02-22T17:07:18.254Z,28.50
2018-02-22T17:09:46.694Z,28.20
2018-02-22T17:12:16.153Z,29.30
2018-02-22T17:14:45.338Z,29.40
2018-02-22T17:17:16.919Z,28.80
2018-02-22T17:19:45.798Z,27.10
2018-02-22T17:22:13.953Z,29.10
2018-02-22T17:24:43.205Z,29.50
2018-02-22T17:27:16.986Z,29.20
2018-02-22T17:29:51.205Z,28.40
2018-02-22T17:32:19.935Z,27.60
2018-02-22T17:34:48.134Z,28.70
2018-02-22T17:37:17.218Z,28.80
2018-02-22T17:40:00.268Z,29.20
2018-02-22T17:42:35.684Z,28.10
2018-02-22T17:45:05.187Z,28.60
2018-02-22T17:47:38.389Z,28.60
2018-02-22T17:50:06.558Z,29.00
2018-02-22T17:52:36.150Z,29.10
2018-02-22T17:55:06.438Z,29.10
2018-02-22T17:57:34.635Z,27.70
2018-02-22T18:00:03.094Z,28.70
2018-02-22T18:02:31.262Z,28.60
2018-02-22T18:05:01.105Z,28.10
2018-02-22T18:07:32.515Z,29.00
2018-02-22T18:10:03.553Z,29.30
2018-02-22T18:12:31.749Z,28.70
2018-02-22T18:15:01.969Z,28.50
2018-02-22T18:17:30.723Z,29.10
2018-02-22T18:20:00.665Z,28.10
2018-02-22T18:22:28.856Z,28.30
2018-02-22T18:24:57.088Z,28.70
2018-02-22T18:27:25.253Z,28.00
2018-02-22T18:29:54.190Z,28.10
2018-02-22T18:32:24.807Z,28.20
2018-02-22T18:34:53.054Z,28.20
2018-02-22T18:37:26.959Z,28.70
2018-02-22T18:39:55.876Z,29.20
2018-02-22T18:42:24.691Z,28.80
2018-02-22T18:44:58.561Z,29.20
2018-02-22T18:47:29.924Z,29.60
2018-02-22T18:49:58.085Z,27.50
2018-02-22T18:52:27.182Z,28.90
2018-02-22T18:54:55.471Z,27.10
2018-02-22T18:57:23.645Z,27.40
2018-02-22T18:59:51.822Z,28.40
2018-02-22T19:02:21.590Z,28.70
2018-02-22T19:04:50.617Z,27.40
2018-02-22T19:07:19.573Z,27.40
2018-02-22T19:09:47.738Z,27.70
2018-02-22T19:12:15.901Z,27.50
2018-02-22T19:14:44.976Z,28.50
2018-02-22T19:17:13.489Z,28.50
2018-02-22T19:19:41.660Z,28.50
2018-02-22T19:22:09.825Z,28.00
2018-02-22T19:24:38.036Z,27.40
2018-02-22T19:27:06.192Z,28.30
2018-02-22T19:29:35.138Z,29.20
2018-02-22T19:32:03.368Z,29.20
2018-02-22T19:34:32.394Z,28.30
2018-02-22T19:37:00.569Z,28.30
2018-02-22T19:39:28.740Z,29.20
2018-02-22T19:41:56.941Z,27.50
2018-02-22T19:44:25.217Z,28.20
2018-02-22T19:46:54.023Z,27.40
2018-02-22T19:49:22.233Z,28.30
2018-02-22T19:51:50.373Z,28.80
2018-02-22T19:54:18.585Z,29.10
2018-02-22T19:56:46.760Z,27.40
2018-02-22T19:59:15.691Z,28.50
2018-02-22T20:01:43.854Z,28.60
2018-02-22T20:04:12.050Z,29.70
2018-02-22T20:06:40.217Z,29.10
2018-02-22T20:09:08.372Z,29.20
2018-02-22T20:11:36.540Z,29.40
2018-02-22T20:14:04.698Z,29.10
2018-02-22T20:16:32.863Z,28.90
2018-02-22T20:19:02.566Z,28.60
2018-02-22T20:21:31.525Z,28.80
2018-02-22T20:23:59.762Z,29.20
2018-02-22T20:26:28.028Z,29.70
2018-02-22T20:28:56.512Z,29.90
2018-02-22T20:31:24.665Z,29.30
2018-02-22T20:33:53.621Z,29.00
2018-02-22T20:36:21.826Z,29.00
2018-02-22T20:38:50.769Z,30.10
2018-02-22T20:41:18.932Z,30.10
2018-02-22T20:43:47.089Z,30.00
2018-02-22T20:46:15.282Z,31.10
2018-02-22T20:48:43.462Z,30.40
2018-02-22T20:51:11.873Z,30.30
2018-02-22T20:53:40.671Z,29.60
2018-02-22T20:56:15.431Z,31.10
2018-02-22T20:58:44.245Z,30.90
2018-02-22T21:01:12.528Z,30.60
2018-02-22T21:03:44.598Z,31.60
2018-02-22T21:06:16.230Z,31.50
2018-02-22T21:08:46.516Z,31.50
2018-02-22T21:11:18.288Z,30.80
2018-02-22T21:13:47.182Z,31.50
2018-02-22T21:16:15.760Z,31.80
2018-02-22T21:18:45.033Z,31.50
2018-02-22T21:21:13.297Z,33.30
2018-02-22T21:23:41.682Z,30.30
2018-02-22T21:26:11.041Z,32.00
2018-02-22T21:28:40.310Z,32.00
2018-02-22T21:31:08.510Z,32.00
2018-02-22T21:36:12.140Z,31.10
2018-02-22T21:38:41.978Z,31.90
2018-02-22T21:41:12.219Z,33.60
2018-02-22T21:43:40.414Z,33.60
2018-02-22T21:46:12.626Z,34.30
2018-02-22T21:48:41.653Z,34.40
2018-02-22T21:51:10.784Z,31.40
2018-02-22T21:53:39.260Z,33.20
2018-02-22T21:56:08.979Z,33.40
2018-02-22T21:58:37.946Z,32.50
2018-02-22T22:01:06.148Z,33.80
2018-02-22T22:03:34.318Z,32.70
2018-02-22T22:06:04.979Z,32.10
2018-02-22T22:08:33.775Z,33.70
2018-02-22T22:11:03.348Z,33.70
2018-02-22T22:13:32.311Z,32.80
2018-02-22T22:16:01.352Z,32.00
2018-02-22T22:18:30.531Z,31.50
2018-02-22T22:20:59.533Z,33.60
2018-02-22T22:23:27.741Z,33.60
2018-02-22T22:25:59.822Z,33.50
2018-02-22T22:28:28.063Z,33.10
2018-02-22T22:30:56.296Z,32.80
2018-02-22T22:33:24.971Z,33.60
2018-02-22T22:35:53.882Z,33.30
2018-02-22T22:38:22.810Z,33.60
2018-02-22T22:40:51.089Z,33.60
2018-02-22T22:43:20.206Z,32.50
2018-02-22T22:45:48.476Z,32.40
2018-02-22T22:48:16.635Z,32.70
2018-02-22T22:50:44.805Z,33.10
2018-02-22T22:53:12.988Z,32.70
2018-02-22T22:55:41.914Z,33.10
2018-02-22T22:58:10.890Z,32.40
2018-02-22T23:00:39.961Z,35.80
2018-02-22T23:03:09.912Z,34.10
2018-02-22T23:05:38.173Z,32.30
2018-02-22T23:08:08.264Z,33.80
2018-02-22T23:10:36.540Z,33.90
2018-02-22T23:13:05.505Z,33.60
2018-02-22T23:15:37.913Z,33.30
2018-02-22T23:18:06.982Z,33.10
2018-02-22T23:23:30.078Z,32.80
2018-02-22T23:26:00.558Z,33.00
2018-02-22T23:28:28.715Z,34.30
2018-02-22T23:30:56.867Z,32.90
2018-02-22T23:33:25.048Z,33.00
2018-02-22T23:35:53.525Z,33.40
2018-02-22T23:38:21.699Z,35.40
2018-02-22T23:41:05.500Z,32.80
2018-02-22T23:43:34.450Z,32.50
2018-02-22T23:46:02.633Z,33.20
2018-02-22T23:48:30.809Z,33.40
2018-02-22T23:50:58.973Z,33.60
2018-02-22T23:53:27.219Z,32.20
2018-02-22T23:55:55.563Z,32.60
2018-02-22T23:58:25.012Z,34.20
